sensor_id;sensor_type;location;lat;lon;timestamp;P1;durP1;ratioP1;P2;durP2;ratioP2
80261;SDS011;69567;47.574;8.580;2024-01-15T00:02:23;9.27;;;3.55;;
80261;SDS011;69567;47.574;8.580;2024-01-15T00:04:51;9.90;;;4.72;;
80261;SDS011;69567;47.574;8.580;2024-01-15T00:07:19;10.02;;;5.13;;
80261;SDS011;69567;47.574;8.580;2024-01-15T00:09:47;9.93;;;5.18;;
80261;SDS011;69567;47.574;8.580;2024-01-15T00:12:15;7.03;;;2.97;;
80261;SDS011;69567;47.574;8.580;2024-01-15T00:14:43;8.63;;;3.65;;
80261;SDS011;69567;47.574;8.580;2024-01-15T00:17:12;5.47;;;3.15;;
80261;SDS011;69567;47.574;8.580;2024-01-15T00:19:40;10.18;;;3.47;;
80261;SDS011;69567;47.574;8.580;2024-01-15T00:22:08;4.88;;;3.17;;
80261;SDS011;69567;47.574;8.580;2024-01-15T00:24:36;6.03;;;3.90;;
80261;SDS011;69567;47.574;8.580;2024-01-15T00:27:03;7.50;;;4.03;;
80261;SDS011;69567;47.574;8.580;2024-01-15T00:29:31;4.88;;;3.03;;
80261;SDS011;69567;47.574;8.580;2024-01-15T00:31:59;5.57;;;2.70;;
80261;SDS011;69567;47.574;8.580;2024-01-15T00:34:29;8.55;;;4.57;;
80261;SDS011;69567;47.574;8.580;2024-01-15T00:36:57;11.90;;;5.85;;
80261;SDS011;69567;47.574;8.580;2024-01-15T00:39:25;6.45;;;3.97;;
80261;SDS011;69567;47.574;8.580;2024-01-15T00:41:53;7.50;;;4.10;;
80261;SDS011;69567;47.574;8.580;2024-01-15T00:44:21;12.65;;;4.82;;
80261;SDS011;69567;47.574;8.580;2024-01-15T00:46:49;6.28;;;2.83;;
80261;SDS011;69567;47.574;8.580;2024-01-15T00:49:17;14.30;;;6.82;;
80261;SDS011;69567;47.574;8.580;2024-01-15T00:51:47;8.02;;;4.90;;
80261;SDS011;69567;47.574;8.580;2024-01-15T00:54:15;8.63;;;4.80;;
80261;SDS011;69567;47.574;8.580;2024-01-15T00:56:43;6.97;;;3.05;;
80261;SDS011;69567;47.574;8.580;2024-01-15T00:59:11;6.80;;;2.95;;
80261;SDS011;69567;47.574;8.580;2024-01-15T01:01:42;6.30;;;3.65;;
80261;SDS011;69567;47.574;8.580;2024-01-15T01:04:12;1.70;;;0.88;;
80261;SDS011;69567;47.574;8.580;2024-01-15T01:06:40;14.40;;;8.18;;
80261;SDS011;69567;47.574;8.580;2024-01-15T01:09:09;8.63;;;4.45;;
80261;SDS011;69567;47.574;8.580;2024-01-15T01:11:37;11.15;;;5.72;;
80261;SDS011;69567;47.574;8.580;2024-01-15T01:14:05;12.80;;;6.43;;
80261;SDS011;69567;47.574;8.580;2024-01-15T01:16:33;9.63;;;5.00;;
80261;SDS011;69567;47.574;8.580;2024-01-15T01:19:06;12.13;;;6.32;;
80261;SDS011;69567;47.574;8.580;2024-01-15T01:21:34;7.65;;;4.22;;
80261;SDS011;69567;47.574;8.580;2024-01-15T01:24:03;10.68;;;3.88;;
80261;SDS011;69567;47.574;8.580;2024-01-15T01:26:32;13.85;;;6.18;;
80261;SDS011;69567;47.574;8.580;2024-01-15T01:29:00;14.07;;;6.20;;
80261;SDS011;69567;47.574;8.580;2024-01-15T01:31:28;16.17;;;7.10;;
80261;SDS011;69567;47.574;8.580;2024-01-15T01:33:57;13.85;;;7.93;;
80261;SDS011;69567;47.574;8.580;2024-01-15T01:36:25;19.92;;;10.63;;
80261;SDS011;69567;47.574;8.580;2024-01-15T01:38:53;11.25;;;5.13;;
80261;SDS011;69567;47.574;8.580;2024-01-15T01:41:21;8.30;;;3.95;;
80261;SDS011;69567;47.574;8.580;2024-01-15T01:43:52;11.90;;;6.13;;
80261;SDS011;69567;47.574;8.580;2024-01-15T01:46:20;11.70;;;4.70;;
80261;SDS011;69567;47.574;8.580;2024-01-15T01:48:47;11.75;;;6.55;;
80261;SDS011;69567;47.574;8.580;2024-01-15T01:51:16;15.38;;;5.65;;
80261;SDS011;69567;47.574;8.580;2024-01-15T01:53:44;25.13;;;10.90;;
80261;SDS011;69567;47.574;8.580;2024-01-15T01:56:12;17.20;;;8.68;;
80261;SDS011;69567;47.574;8.580;2024-01-15T01:58:40;13.55;;;6.03;;
80261;SDS011;69567;47.574;8.580;2024-01-15T02:01:09;12.02;;;6.40;;
80261;SDS011;69567;47.574;8.580;2024-01-15T02:03:38;15.80;;;7.18;;
80261;SDS011;69567;47.574;8.580;2024-01-15T02:06:07;19.10;;;7.93;;
80261;SDS011;69567;47.574;8.580;2024-01-15T02:08:36;15.05;;;7.20;;
80261;SDS011;69567;47.574;8.580;2024-01-15T02:11:04;19.20;;;7.53;;
80261;SDS011;69567;47.574;8.580;2024-01-15T02:13:32;10.88;;;5.57;;
80261;SDS011;69567;47.574;8.580;2024-01-15T02:16:00;9.25;;;4.72;;
80261;SDS011;69567;47.574;8.580;2024-01-15T02:18:29;10.07;;;3.75;;
80261;SDS011;69567;47.574;8.580;2024-01-15T02:21:06;9.07;;;4.55;;
80261;SDS011;69567;47.574;8.580;2024-01-15T02:23:35;18.52;;;7.60;;
80261;SDS011;69567;47.574;8.580;2024-01-15T02:26:04;12.02;;;5.53;;
80261;SDS011;69567;47.574;8.580;2024-01-15T02:28:32;13.23;;;5.82;;
80261;SDS011;69567;47.574;8.580;2024-01-15T02:31:00;5.13;;;2.05;;
80261;SDS011;69567;47.574;8.580;2024-01-15T02:33:28;11.25;;;4.72;;
80261;SDS011;69567;47.574;8.580;2024-01-15T02:35:56;16.85;;;7.03;;
80261;SDS011;69567;47.574;8.580;2024-01-15T02:38:24;10.52;;;4.72;;
80261;SDS011;69567;47.574;8.580;2024-01-15T02:40:53;16.02;;;6.50;;
80261;SDS011;69567;47.574;8.580;2024-01-15T02:43:21;11.30;;;4.32;;
80261;SDS011;69567;47.574;8.580;2024-01-15T02:45:49;14.75;;;5.05;;
80261;SDS011;69567;47.574;8.580;2024-01-15T02:48:17;8.65;;;3.75;;
80261;SDS011;69567;47.574;8.580;2024-01-15T02:50:44;18.25;;;9.10;;
80261;SDS011;69567;47.574;8.580;2024-01-15T02:53:12;20.33;;;10.13;;
80261;SDS011;69567;47.574;8.580;2024-01-15T02:55:40;15.10;;;6.28;;
80261;SDS011;69567;47.574;8.580;2024-01-15T02:58:10;8.95;;;4.07;;
80261;SDS011;69567;47.574;8.580;2024-01-15T03:00:38;9.70;;;5.40;;
80261;SDS011;69567;47.574;8.580;2024-01-15T03:03:06;10.57;;;4.70;;
80261;SDS011;69567;47.574;8.580;2024-01-15T03:05:37;7.85;;;2.78;;
80261;SDS011;69567;47.574;8.580;2024-01-15T03:08:05;8.55;;;3.05;;
80261;SDS011;69567;47.574;8.580;2024-01-15T03:10:33;10.02;;;2.88;;
80261;SDS011;69567;47.574;8.580;2024-01-15T03:13:01;10.70;;;5.15;;
80261;SDS011;69567;47.574;8.580;2024-01-15T03:15:31;9.35;;;3.70;;
80261;SDS011;69567;47.574;8.580;2024-01-15T03:17:59;13.50;;;5.07;;
80261;SDS011;69567;47.574;8.580;2024-01-15T03:20:27;11.85;;;5.07;;
80261;SDS011;69567;47.574;8.580;2024-01-15T03:22:55;12.55;;;5.38;;
80261;SDS011;69567;47.574;8.580;2024-01-15T03:25:23;7.28;;;3.15;;
80261;SDS011;69567;47.574;8.580;2024-01-15T03:27:51;10.05;;;4.00;;
80261;SDS011;69567;47.574;8.580;2024-01-15T03:30:19;14.23;;;6.18;;
80261;SDS011;69567;47.574;8.580;2024-01-15T03:32:48;24.67;;;9.65;;
80261;SDS011;69567;47.574;8.580;2024-01-15T03:35:16;26.05;;;12.70;;
80261;SDS011;69567;47.574;8.580;2024-01-15T03:37:44;22.27;;;8.23;;
80261;SDS011;69567;47.574;8.580;2024-01-15T03:40:12;20.60;;;9.60;;
80261;SDS011;69567;47.574;8.580;2024-01-15T03:42:42;11.95;;;3.72;;
80261;SDS011;69567;47.574;8.580;2024-01-15T03:45:10;14.57;;;4.43;;
80261;SDS011;69567;47.574;8.580;2024-01-15T03:47:38;12.73;;;5.22;;
80261;SDS011;69567;47.574;8.580;2024-01-15T03:50:08;9.73;;;4.18;;
80261;SDS011;69567;47.574;8.580;2024-01-15T03:52:36;16.25;;;6.47;;
80261;SDS011;69567;47.574;8.580;2024-01-15T03:55:04;13.75;;;5.70;;
80261;SDS011;69567;47.574;8.580;2024-01-15T03:57:33;19.50;;;8.65;;
80261;SDS011;69567;47.574;8.580;2024-01-15T04:00:00;22.90;;;8.88;;
80261;SDS011;69567;47.574;8.580;2024-01-15T04:02:29;21.80;;;10.82;;
80261;SDS011;69567;47.574;8.580;2024-01-15T04:04:57;20.15;;;7.50;;
80261;SDS011;69567;47.574;8.580;2024-01-15T04:07:27;22.25;;;10.85;;
80261;SDS011;69567;47.574;8.580;2024-01-15T04:09:55;19.15;;;7.88;;
80261;SDS011;69567;47.574;8.580;2024-01-15T04:12:23;13.70;;;4.88;;
80261;SDS011;69567;47.574;8.580;2024-01-15T04:14:51;16.45;;;6.80;;
80261;SDS011;69567;47.574;8.580;2024-01-15T04:17:18;18.35;;;7.07;;
80261;SDS011;69567;47.574;8.580;2024-01-15T04:19:48;17.38;;;7.28;;
80261;SDS011;69567;47.574;8.580;2024-01-15T04:22:16;11.40;;;5.25;;
80261;SDS011;69567;47.574;8.580;2024-01-15T04:24:45;16.88;;;6.63;;
80261;SDS011;69567;47.574;8.580;2024-01-15T04:27:14;9.27;;;4.20;;
80261;SDS011;69567;47.574;8.580;2024-01-15T04:29:42;14.50;;;5.03;;
80261;SDS011;69567;47.574;8.580;2024-01-15T04:32:11;9.30;;;3.72;;
80261;SDS011;69567;47.574;8.580;2024-01-15T04:34:39;7.40;;;3.45;;
80261;SDS011;69567;47.574;8.580;2024-01-15T04:37:07;10.20;;;3.83;;
80261;SDS011;69567;47.574;8.580;2024-01-15T04:39:34;8.95;;;4.15;;
80261;SDS011;69567;47.574;8.580;2024-01-15T04:42:04;9.38;;;3.42;;
80261;SDS011;69567;47.574;8.580;2024-01-15T04:44:32;12.20;;;5.15;;
80261;SDS011;69567;47.574;8.580;2024-01-15T04:46:59;11.10;;;5.50;;
80261;SDS011;69567;47.574;8.580;2024-01-15T04:49:27;6.68;;;3.05;;
80261;SDS011;69567;47.574;8.580;2024-01-15T04:51:56;0.95;;;0.93;;
80261;SDS011;69567;47.574;8.580;2024-01-15T04:54:23;5.15;;;2.80;;
80261;SDS011;69567;47.574;8.580;2024-01-15T04:56:51;5.22;;;3.80;;
80261;SDS011;69567;47.574;8.580;2024-01-15T04:59:21;16.40;;;7.28;;
80261;SDS011;69567;47.574;8.580;2024-01-15T05:01:48;10.05;;;4.75;;
80261;SDS011;69567;47.574;8.580;2024-01-15T05:04:16;17.27;;;6.07;;
80261;SDS011;69567;47.574;8.580;2024-01-15T05:06:44;11.32;;;4.30;;
80261;SDS011;69567;47.574;8.580;2024-01-15T05:09:12;17.27;;;7.15;;
80261;SDS011;69567;47.574;8.580;2024-01-15T05:11:40;16.35;;;6.90;;
80261;SDS011;69567;47.574;8.580;2024-01-15T05:14:08;12.10;;;3.95;;
80261;SDS011;69567;47.574;8.580;2024-01-15T05:16:39;13.98;;;6.03;;
80261;SDS011;69567;47.574;8.580;2024-01-15T05:19:07;17.67;;;8.15;;
80261;SDS011;69567;47.574;8.580;2024-01-15T05:21:35;14.25;;;6.18;;
80261;SDS011;69567;47.574;8.580;2024-01-15T05:24:03;13.30;;;5.82;;
80261;SDS011;69567;47.574;8.580;2024-01-15T05:26:31;16.70;;;7.13;;
80261;SDS011;69567;47.574;8.580;2024-01-15T05:28:59;17.08;;;6.35;;
80261;SDS011;69567;47.574;8.580;2024-01-15T05:31:27;22.25;;;10.95;;
80261;SDS011;69567;47.574;8.580;2024-01-15T05:33:57;14.13;;;5.72;;
80261;SDS011;69567;47.574;8.580;2024-01-15T05:36:25;19.92;;;8.80;;
80261;SDS011;69567;47.574;8.580;2024-01-15T05:38:53;9.27;;;4.45;;
80261;SDS011;69567;47.574;8.580;2024-01-15T05:41:20;19.50;;;8.55;;
80261;SDS011;69567;47.574;8.580;2024-01-15T05:43:49;12.30;;;5.32;;
80261;SDS011;69567;47.574;8.580;2024-01-15T05:46:17;13.85;;;6.00;;
80261;SDS011;69567;47.574;8.580;2024-01-15T05:48:45;9.75;;;3.88;;
80261;SDS011;69567;47.574;8.580;2024-01-15T05:51:15;15.45;;;6.57;;
80261;SDS011;69567;47.574;8.580;2024-01-15T05:53:43;15.02;;;7.20;;
80261;SDS011;69567;47.574;8.580;2024-01-15T05:56:12;18.33;;;6.22;;
80261;SDS011;69567;47.574;8.580;2024-01-15T05:58:39;13.35;;;5.57;;
80261;SDS011;69567;47.574;8.580;2024-01-15T06:01:07;18.80;;;7.45;;
80261;SDS011;69567;47.574;8.580;2024-01-15T06:03:35;17.27;;;8.23;;
80261;SDS011;69567;47.574;8.580;2024-01-15T06:06:08;10.80;;;4.82;;
80261;SDS011;69567;47.574;8.580;2024-01-15T06:08:37;17.48;;;7.70;;
80261;SDS011;69567;47.574;8.580;2024-01-15T06:11:06;15.13;;;6.05;;
80261;SDS011;69567;47.574;8.580;2024-01-15T06:13:34;12.80;;;5.68;;
80261;SDS011;69567;47.574;8.580;2024-01-15T06:16:02;18.67;;;9.02;;
80261;SDS011;69567;47.574;8.580;2024-01-15T06:18:32;13.27;;;6.47;;
80261;SDS011;69567;47.574;8.580;2024-01-15T06:21:00;12.80;;;5.25;;
80261;SDS011;69567;47.574;8.580;2024-01-15T06:23:28;17.92;;;8.73;;
80261;SDS011;69567;47.574;8.580;2024-01-15T06:25:58;13.43;;;5.95;;
80261;SDS011;69567;47.574;8.580;2024-01-15T06:28:26;18.52;;;7.55;;
80261;SDS011;69567;47.574;8.580;2024-01-15T06:30:54;9.40;;;4.53;;
80261;SDS011;69567;47.574;8.580;2024-01-15T06:33:22;13.10;;;6.75;;
80261;SDS011;69567;47.574;8.580;2024-01-15T06:35:51;13.65;;;6.13;;
80261;SDS011;69567;47.574;8.580;2024-01-15T06:38:18;15.75;;;7.60;;
80261;SDS011;69567;47.574;8.580;2024-01-15T06:40:46;12.90;;;5.50;;
80261;SDS011;69567;47.574;8.580;2024-01-15T06:43:20;21.55;;;9.57;;
80261;SDS011;69567;47.574;8.580;2024-01-15T06:45:48;19.70;;;8.13;;
80261;SDS011;69567;47.574;8.580;2024-01-15T06:48:16;20.23;;;9.70;;
80261;SDS011;69567;47.574;8.580;2024-01-15T06:50:44;15.25;;;6.45;;
80261;SDS011;69567;47.574;8.580;2024-01-15T06:53:12;18.45;;;7.45;;
80261;SDS011;69567;47.574;8.580;2024-01-15T06:55:40;13.88;;;5.93;;
80261;SDS011;69567;47.574;8.580;2024-01-15T06:58:08;16.10;;;5.78;;
80261;SDS011;69567;47.574;8.580;2024-01-15T07:00:38;13.07;;;5.85;;
80261;SDS011;69567;47.574;8.580;2024-01-15T07:03:07;23.60;;;10.68;;
80261;SDS011;69567;47.574;8.580;2024-01-15T07:05:35;18.60;;;6.78;;
80261;SDS011;69567;47.574;8.580;2024-01-15T07:08:04;20.08;;;10.90;;
80261;SDS011;69567;47.574;8.580;2024-01-15T07:10:31;17.67;;;7.35;;
80261;SDS011;69567;47.574;8.580;2024-01-15T07:13:02;17.77;;;8.75;;
80261;SDS011;69567;47.574;8.580;2024-01-15T07:15:31;16.83;;;7.97;;
80261;SDS011;69567;47.574;8.580;2024-01-15T07:18:00;12.88;;;4.68;;
80261;SDS011;69567;47.574;8.580;2024-01-15T07:20:29;12.93;;;6.05;;
80261;SDS011;69567;47.574;8.580;2024-01-15T07:22:57;14.10;;;6.38;;
80261;SDS011;69567;47.574;8.580;2024-01-15T07:25:24;11.32;;;3.25;;
80261;SDS011;69567;47.574;8.580;2024-01-15T07:27:53;9.23;;;4.43;;
80261;SDS011;69567;47.574;8.580;2024-01-15T07:30:21;12.80;;;5.68;;
80261;SDS011;69567;47.574;8.580;2024-01-15T07:32:49;12.30;;;5.80;;
80261;SDS011;69567;47.574;8.580;2024-01-15T07:35:21;15.70;;;6.35;;
80261;SDS011;69567;47.574;8.580;2024-01-15T07:37:49;7.68;;;3.50;;
80261;SDS011;69567;47.574;8.580;2024-01-15T07:40:17;15.02;;;7.38;;
80261;SDS011;69567;47.574;8.580;2024-01-15T07:42:44;18.30;;;6.97;;
80261;SDS011;69567;47.574;8.580;2024-01-15T07:45:13;9.07;;;4.63;;
80261;SDS011;69567;47.574;8.580;2024-01-15T07:47:40;7.13;;;3.13;;
80261;SDS011;69567;47.574;8.580;2024-01-15T07:50:09;10.63;;;3.22;;
80261;SDS011;69567;47.574;8.580;2024-01-15T07:52:38;15.30;;;7.97;;
80261;SDS011;69567;47.574;8.580;2024-01-15T07:55:06;5.07;;;2.88;;
80261;SDS011;69567;47.574;8.580;2024-01-15T07:57:34;11.88;;;4.43;;
80261;SDS011;69567;47.574;8.580;2024-01-15T08:00:03;13.25;;;5.25;;
80261;SDS011;69567;47.574;8.580;2024-01-15T08:02:31;14.75;;;7.07;;
80261;SDS011;69567;47.574;8.580;2024-01-15T08:05:03;16.30;;;7.00;;
80261;SDS011;69567;47.574;8.580;2024-01-15T08:07:31;5.45;;;2.67;;
80261;SDS011;69567;47.574;8.580;2024-01-15T08:10:01;10.18;;;4.90;;
80261;SDS011;69567;47.574;8.580;2024-01-15T08:12:28;7.82;;;3.65;;
80261;SDS011;69567;47.574;8.580;2024-01-15T08:14:56;8.70;;;4.13;;
80261;SDS011;69567;47.574;8.580;2024-01-15T08:17:24;12.40;;;6.47;;
80261;SDS011;69567;47.574;8.580;2024-01-15T08:19:55;7.03;;;2.95;;
80261;SDS011;69567;47.574;8.580;2024-01-15T08:22:23;8.25;;;2.17;;
80261;SDS011;69567;47.574;8.580;2024-01-15T08:24:51;9.82;;;4.28;;
80261;SDS011;69567;47.574;8.580;2024-01-15T08:27:21;2.53;;;1.35;;
80261;SDS011;69567;47.574;8.580;2024-01-15T08:29:49;9.88;;;4.28;;
80261;SDS011;69567;47.574;8.580;2024-01-15T08:32:18;9.75;;;4.57;;
80261;SDS011;69567;47.574;8.580;2024-01-15T08:34:45;9.70;;;4.18;;
80261;SDS011;69567;47.574;8.580;2024-01-15T08:37:15;13.15;;;5.93;;
80261;SDS011;69567;47.574;8.580;2024-01-15T08:39:43;3.90;;;2.47;;
80261;SDS011;69567;47.574;8.580;2024-01-15T08:42:11;14.52;;;5.90;;
80261;SDS011;69567;47.574;8.580;2024-01-15T08:44:40;4.35;;;2.20;;
80261;SDS011;69567;47.574;8.580;2024-01-15T08:47:10;0.60;;;0.32;;
80261;SDS011;69567;47.574;8.580;2024-01-15T08:49:37;2.97;;;1.80;;
80261;SDS011;69567;47.574;8.580;2024-01-15T08:52:07;2.60;;;1.65;;
80261;SDS011;69567;47.574;8.580;2024-01-15T08:54:35;5.85;;;2.30;;
80261;SDS011;69567;47.574;8.580;2024-01-15T08:57:03;9.27;;;2.78;;
80261;SDS011;69567;47.574;8.580;2024-01-15T08:59:32;3.53;;;1.23;;
80261;SDS011;69567;47.574;8.580;2024-01-15T09:02:01;8.82;;;3.75;;
80261;SDS011;69567;47.574;8.580;2024-01-15T09:04:29;4.22;;;2.17;;
80261;SDS011;69567;47.574;8.580;2024-01-15T09:06:57;3.78;;;2.28;;
80261;SDS011;69567;47.574;8.580;2024-01-15T09:09:25;5.30;;;2.15;;
80261;SDS011;69567;47.574;8.580;2024-01-15T09:11:54;7.75;;;3.38;;
80261;SDS011;69567;47.574;8.580;2024-01-15T09:14:21;3.97;;;2.58;;
80261;SDS011;69567;47.574;8.580;2024-01-15T09:17:04;5.50;;;2.28;;
80261;SDS011;69567;47.574;8.580;2024-01-15T09:19:32;6.10;;;2.45;;
80261;SDS011;69567;47.574;8.580;2024-01-15T09:22:00;6.57;;;2.38;;
80261;SDS011;69567;47.574;8.580;2024-01-15T09:24:28;6.32;;;2.67;;
80261;SDS011;69567;47.574;8.580;2024-01-15T09:26:56;5.55;;;2.92;;
80261;SDS011;69567;47.574;8.580;2024-01-15T09:29:23;4.72;;;2.20;;
80261;SDS011;69567;47.574;8.580;2024-01-15T09:31:51;7.45;;;4.07;;
80261;SDS011;69567;47.574;8.580;2024-01-15T09:34:21;3.63;;;1.15;;
80261;SDS011;69567;47.574;8.580;2024-01-15T09:36:49;8.75;;;4.40;;
80261;SDS011;69567;47.574;8.580;2024-01-15T09:39:17;7.95;;;3.28;;
80261;SDS011;69567;47.574;8.580;2024-01-15T09:41:45;7.55;;;3.55;;
80261;SDS011;69567;47.574;8.580;2024-01-15T09:44:15;3.35;;;1.77;;
80261;SDS011;69567;47.574;8.580;2024-01-15T09:46:43;9.15;;;3.83;;
80261;SDS011;69567;47.574;8.580;2024-01-15T09:49:11;6.60;;;2.63;;
80261;SDS011;69567;47.574;8.580;2024-01-15T09:51:41;3.15;;;2.20;;
80261;SDS011;69567;47.574;8.580;2024-01-15T09:54:09;2.17;;;0.88;;
80261;SDS011;69567;47.574;8.580;2024-01-15T09:56:39;2.20;;;1.10;;
80261;SDS011;69567;47.574;8.580;2024-01-15T09:59:07;4.35;;;2.25;;
80261;SDS011;69567;47.574;8.580;2024-01-15T10:01:35;3.83;;;1.50;;
80261;SDS011;69567;47.574;8.580;2024-01-15T10:04:04;8.18;;;4.15;;
80261;SDS011;69567;47.574;8.580;2024-01-15T10:06:32;9.45;;;3.50;;
80261;SDS011;69567;47.574;8.580;2024-01-15T10:09:02;5.13;;;2.17;;
80261;SDS011;69567;47.574;8.580;2024-01-15T10:11:30;9.00;;;4.40;;
80261;SDS011;69567;47.574;8.580;2024-01-15T10:13:59;9.98;;;4.45;;
80261;SDS011;69567;47.574;8.580;2024-01-15T10:16:27;6.40;;;2.47;;
80261;SDS011;69567;47.574;8.580;2024-01-15T10:18:54;4.68;;;1.88;;
80261;SDS011;69567;47.574;8.580;2024-01-15T10:21:22;6.40;;;3.65;;
80261;SDS011;69567;47.574;8.580;2024-01-15T10:23:53;4.88;;;1.67;;
80261;SDS011;69567;47.574;8.580;2024-01-15T10:26:26;5.13;;;2.45;;
80261;SDS011;69567;47.574;8.580;2024-01-15T10:28:53;6.65;;;1.33;;
80261;SDS011;69567;47.574;8.580;2024-01-15T10:31:22;4.30;;;1.70;;
80261;SDS011;69567;47.574;8.580;2024-01-15T10:33:54;4.35;;;2.15;;
80261;SDS011;69567;47.574;8.580;2024-01-15T10:36:25;2.45;;;1.17;;
80261;SDS011;69567;47.574;8.580;2024-01-15T10:38:53;3.05;;;1.25;;
80261;SDS011;69567;47.574;8.580;2024-01-15T10:41:27;4.80;;;1.50;;
80261;SDS011;69567;47.574;8.580;2024-01-15T10:43:55;2.20;;;1.05;;
80261;SDS011;69567;47.574;8.580;2024-01-15T10:46:23;4.07;;;1.95;;
80261;SDS011;69567;47.574;8.580;2024-01-15T10:48:52;1.80;;;1.58;;
80261;SDS011;69567;47.574;8.580;2024-01-15T10:51:20;4.25;;;1.70;;
80261;SDS011;69567;47.574;8.580;2024-01-15T10:53:48;0.75;;;0.47;;
80261;SDS011;69567;47.574;8.580;2024-01-15T10:56:17;1.23;;;0.32;;
80261;SDS011;69567;47.574;8.580;2024-01-15T10:58:46;3.85;;;1.50;;
80261;SDS011;69567;47.574;8.580;2024-01-15T11:01:14;1.25;;;0.95;;
80261;SDS011;69567;47.574;8.580;2024-01-15T11:03:43;3.47;;;2.00;;
80261;SDS011;69567;47.574;8.580;2024-01-15T11:06:17;0.75;;;0.63;;
80261;SDS011;69567;47.574;8.580;2024-01-15T11:08:47;0.93;;;0.55;;
80261;SDS011;69567;47.574;8.580;2024-01-15T11:11:16;1.30;;;1.05;;
80261;SDS011;69567;47.574;8.580;2024-01-15T11:13:47;1.40;;;1.25;;
80261;SDS011;69567;47.574;8.580;2024-01-15T11:16:18;2.00;;;1.38;;
80261;SDS011;69567;47.574;8.580;2024-01-15T11:19:01;3.00;;;1.30;;
80261;SDS011;69567;47.574;8.580;2024-01-15T11:21:30;2.25;;;1.13;;
80261;SDS011;69567;47.574;8.580;2024-01-15T11:23:58;3.80;;;1.83;;
80261;SDS011;69567;47.574;8.580;2024-01-15T11:26:27;2.20;;;1.73;;
80261;SDS011;69567;47.574;8.580;2024-01-15T11:28:55;1.20;;;0.85;;
80261;SDS011;69567;47.574;8.580;2024-01-15T11:31:26;1.48;;;0.98;;
80261;SDS011;69567;47.574;8.580;2024-01-15T11:33:54;3.05;;;1.77;;
80261;SDS011;69567;47.574;8.580;2024-01-15T11:41:58;1.00;;;0.90;;
80261;SDS011;69567;47.574;8.580;2024-01-15T11:44:28;2.90;;;1.02;;
80261;SDS011;69567;47.574;8.580;2024-01-15T11:46:57;3.20;;;0.88;;
80261;SDS011;69567;47.574;8.580;2024-01-15T11:49:26;1.10;;;1.10;;
80261;SDS011;69567;47.574;8.580;2024-01-15T11:52:02;2.05;;;0.82;;
80261;SDS011;69567;47.574;8.580;2024-01-15T11:54:29;1.73;;;1.40;;
80261;SDS011;69567;47.574;8.580;2024-01-15T11:57:00;3.03;;;0.80;;
80261;SDS011;69567;47.574;8.580;2024-01-15T11:59:32;0.40;;;0.40;;
80261;SDS011;69567;47.574;8.580;2024-01-15T12:02:01;4.28;;;2.08;;
80261;SDS011;69567;47.574;8.580;2024-01-15T12:04:29;2.75;;;1.17;;
80261;SDS011;69567;47.574;8.580;2024-01-15T12:06:57;1.00;;;0.82;;
80261;SDS011;69567;47.574;8.580;2024-01-15T12:09:25;1.00;;;0.40;;
80261;SDS011;69567;47.574;8.580;2024-01-15T12:11:57;1.45;;;0.63;;
80261;SDS011;69567;47.574;8.580;2024-01-15T12:14:27;1.70;;;1.52;;
80261;SDS011;69567;47.574;8.580;2024-01-15T12:16:57;1.63;;;0.70;;
80261;SDS011;69567;47.574;8.580;2024-01-15T12:19:27;1.20;;;1.02;;
80261;SDS011;69567;47.574;8.580;2024-01-15T12:21:55;1.45;;;0.90;;
80261;SDS011;69567;47.574;8.580;2024-01-15T12:24:23;1.90;;;1.05;;
80261;SDS011;69567;47.574;8.580;2024-01-15T12:26:51;1.42;;;1.00;;
80261;SDS011;69567;47.574;8.580;2024-01-15T12:29:19;2.65;;;0.73;;
80261;SDS011;69567;47.574;8.580;2024-01-15T12:31:48;2.30;;;1.33;;
80261;SDS011;69567;47.574;8.580;2024-01-15T12:34:18;0.75;;;0.40;;
80261;SDS011;69567;47.574;8.580;2024-01-15T12:36:46;2.15;;;1.42;;
80261;SDS011;69567;47.574;8.580;2024-01-15T12:39:14;0.95;;;0.50;;
80261;SDS011;69567;47.574;8.580;2024-01-15T12:41:42;1.05;;;0.70;;
80261;SDS011;69567;47.574;8.580;2024-01-15T12:44:10;1.17;;;1.05;;
80261;SDS011;69567;47.574;8.580;2024-01-15T12:46:38;1.38;;;0.63;;
80261;SDS011;69567;47.574;8.580;2024-01-15T12:49:07;0.35;;;0.35;;
80261;SDS011;69567;47.574;8.580;2024-01-15T12:51:36;1.23;;;0.70;;
80261;SDS011;69567;47.574;8.580;2024-01-15T12:54:05;0.73;;;0.57;;
80261;SDS011;69567;47.574;8.580;2024-01-15T12:56:33;0.70;;;0.50;;
80261;SDS011;69567;47.574;8.580;2024-01-15T12:59:01;1.33;;;0.77;;
80261;SDS011;69567;47.574;8.580;2024-01-15T13:01:28;0.65;;;0.40;;
80261;SDS011;69567;47.574;8.580;2024-01-15T13:03:56;1.25;;;0.68;;
80261;SDS011;69567;47.574;8.580;2024-01-15T13:06:26;0.85;;;0.50;;
80261;SDS011;69567;47.574;8.580;2024-01-15T13:08:55;1.27;;;0.05;;
80261;SDS011;69567;47.574;8.580;2024-01-15T13:11:23;1.52;;;0.80;;
80261;SDS011;69567;47.574;8.580;2024-01-15T13:13:52;4.55;;;2.33;;
80261;SDS011;69567;47.574;8.580;2024-01-15T13:16:20;7.30;;;3.63;;
80261;SDS011;69567;47.574;8.580;2024-01-15T13:18:51;12.93;;;5.35;;
80261;SDS011;69567;47.574;8.580;2024-01-15T13:21:19;7.68;;;4.10;;
80261;SDS011;69567;47.574;8.580;2024-01-15T13:23:47;4.22;;;2.75;;
80261;SDS011;69567;47.574;8.580;2024-01-15T13:26:16;6.25;;;3.10;;
80261;SDS011;69567;47.574;8.580;2024-01-15T13:28:45;7.32;;;4.53;;
80261;SDS011;69567;47.574;8.580;2024-01-15T13:31:13;9.85;;;5.35;;
80261;SDS011;69567;47.574;8.580;2024-01-15T13:33:41;6.47;;;3.30;;
80261;SDS011;69567;47.574;8.580;2024-01-15T13:36:10;8.45;;;4.25;;
80261;SDS011;69567;47.574;8.580;2024-01-15T13:38:38;11.10;;;6.80;;
80261;SDS011;69567;47.574;8.580;2024-01-15T13:41:06;10.50;;;6.57;;
80261;SDS011;69567;47.574;8.580;2024-01-15T13:43:36;8.27;;;3.55;;
80261;SDS011;69567;47.574;8.580;2024-01-15T13:46:04;7.65;;;3.90;;
80261;SDS011;69567;47.574;8.580;2024-01-15T13:48:32;15.38;;;7.72;;
80261;SDS011;69567;47.574;8.580;2024-01-15T13:51:00;15.73;;;7.75;;
80261;SDS011;69567;47.574;8.580;2024-01-15T13:53:28;11.30;;;4.70;;
80261;SDS011;69567;47.574;8.580;2024-01-15T13:55:56;5.43;;;2.42;;
80261;SDS011;69567;47.574;8.580;2024-01-15T13:58:24;14.05;;;6.65;;
80261;SDS011;69567;47.574;8.580;2024-01-15T14:00:53;9.35;;;4.00;;
80261;SDS011;69567;47.574;8.580;2024-01-15T14:03:21;15.02;;;7.53;;
80261;SDS011;69567;47.574;8.580;2024-01-15T14:05:50;16.10;;;8.35;;
80261;SDS011;69567;47.574;8.580;2024-01-15T14:08:18;15.07;;;8.55;;
80261;SDS011;69567;47.574;8.580;2024-01-15T14:10:46;15.93;;;9.43;;
80261;SDS011;69567;47.574;8.580;2024-01-15T14:13:14;10.95;;;4.75;;
80261;SDS011;69567;47.574;8.580;2024-01-15T14:15:41;15.13;;;8.18;;
80261;SDS011;69567;47.574;8.580;2024-01-15T14:18:11;14.18;;;7.03;;
80261;SDS011;69567;47.574;8.580;2024-01-15T14:20:39;12.98;;;6.80;;
80261;SDS011;69567;47.574;8.580;2024-01-15T14:23:07;12.82;;;7.10;;
80261;SDS011;69567;47.574;8.580;2024-01-15T14:25:35;14.90;;;6.13;;
80261;SDS011;69567;47.574;8.580;2024-01-15T14:28:03;2.85;;;1.77;;
80261;SDS011;69567;47.574;8.580;2024-01-15T14:30:31;14.23;;;8.15;;
80261;SDS011;69567;47.574;8.580;2024-01-15T14:32:59;7.90;;;4.28;;
80261;SDS011;69567;47.574;8.580;2024-01-15T14:35:29;6.93;;;3.60;;
80261;SDS011;69567;47.574;8.580;2024-01-15T14:37:56;14.55;;;8.45;;
80261;SDS011;69567;47.574;8.580;2024-01-15T14:40:25;7.75;;;3.72;;
80261;SDS011;69567;47.574;8.580;2024-01-15T14:42:53;13.05;;;6.40;;
80261;SDS011;69567;47.574;8.580;2024-01-15T14:45:21;12.30;;;5.53;;
80261;SDS011;69567;47.574;8.580;2024-01-15T14:47:49;14.43;;;8.95;;
80261;SDS011;69567;47.574;8.580;2024-01-15T14:50:17;12.32;;;6.40;;
80261;SDS011;69567;47.574;8.580;2024-01-15T14:52:47;11.30;;;6.53;;
80261;SDS011;69567;47.574;8.580;2024-01-15T14:55:15;13.20;;;6.18;;